Time;durP1;ratioP1;P1;durP2;ratioP2;P2;SDS_P1;SDS_P2;PMS_P1;PMS_P2;Temp;Humidity;BMP_temperature;BMP_pressure;BME280_temperature;BME280_humidity;BME280_pressure;Samples;Min_cycle;Max_cycle;Signal;HPM_P1;HPM_P2
2022/02/08 00:01:21;;;;;;;2.28;1.20;;;;;;;;;;5135650;27;20038;-73
2022/02/08 00:03:47;;;;;;;2.65;1.65;;;;;;;;;;5135911;27;20035;-74
2022/02/08 00:08:57;;;;;;;2.70;1.35;;;;;;;;;;5136290;27;20095;-73
2022/02/08 00:11:23;;;;;;;1.65;1.20;;;;;;;;;;5135554;27;20023;-73
2022/02/08 00:13:49;;;;;;;3.22;1.70;;;;;;;;;;5136002;27;20041;-73
2022/02/08 00:16:15;;;;;;;3.33;1.23;;;;;;;;;;5136006;27;20030;-73
2022/02/08 00:18:41;;;;;;;1.95;1.10;;;;;;;;;;5131199;27;20103;-73
2022/02/08 00:21:08;;;;;;;1.73;1.27;;;;;;;;;;5115403;28;20451;-73
2022/02/08 00:23:34;;;;;;;2.83;1.33;;;;;;;;;;5114643;28;20019;-73
2022/02/08 00:26:00;;;;;;;1.75;1.00;;;;;;;;;;5115032;28;20020;-73
2022/02/08 00:28:26;;;;;;;3.17;1.38;;;;;;;;;;5114963;28;20047;-74
2022/02/08 00:30:52;;;;;;;1.95;1.40;;;;;;;;;;5114935;28;20026;-73
2022/02/08 00:33:18;;;;;;;3.13;1.20;;;;;;;;;;5114687;28;20508;-74
2022/02/08 00:35:44;;;;;;;1.92;1.17;;;;;;;;;;5114969;28;20031;-74
2022/02/08 00:38:12;;;;;;;1.83;1.17;;;;;;;;;;5114763;28;20023;-73
2022/02/08 00:40:38;;;;;;;2.67;1.30;;;;;;;;;;5114103;28;20039;-73
2022/02/08 00:43:06;;;;;;;3.00;1.10;;;;;;;;;;5114639;28;20012;-74
2022/02/08 00:48:54;;;;;;;1.80;1.10;;;;;;;;;;5114917;28;20394;-73
2022/02/08 00:50:51;;;;;;;2.65;1.40;;;;;;;;;;5103736;28;20032;-73
2022/02/08 00:53:17;;;;;;;1.92;1.20;;;;;;;;;;5114042;28;20027;-73
2022/02/08 00:55:43;;;;;;;1.80;1.33;;;;;;;;;;5129751;27;20046;-73
2022/02/08 00:58:09;;;;;;;1.95;1.20;;;;;;;;;;5135131;27;20083;-74
2022/02/08 01:00:36;;;;;;;1.90;1.30;;;;;;;;;;5134206;27;20538;-73
2022/02/08 01:03:03;;;;;;;1.98;1.15;;;;;;;;;;5134452;27;20039;-73
2022/02/08 01:05:29;;;;;;;2.67;1.38;;;;;;;;;;5116433;27;20460;-73
2022/02/08 01:07:56;;;;;;;2.10;1.10;;;;;;;;;;5134674;27;20493;-73
2022/02/08 01:10:24;;;;;;;2.90;1.20;;;;;;;;;;5134745;27;20024;-73
2022/02/08 01:12:50;;;;;;;2.28;1.08;;;;;;;;;;5134897;27;20053;-73
2022/02/08 01:15:17;;;;;;;2.05;1.05;;;;;;;;;;5134759;27;20023;-73
2022/02/08 01:17:45;;;;;;;2.15;1.20;;;;;;;;;;5134584;27;20056;-73
2022/02/08 01:20:16;;;;;;;2.28;1.00;;;;;;;;;;5117245;27;20035;-73
2022/02/08 01:22:43;;;;;;;1.92;0.98;;;;;;;;;;5114038;28;20020;-73
2022/02/08 01:25:14;;;;;;;2.72;1.20;;;;;;;;;;5114283;28;20534;-73
2022/02/08 01:27:47;;;;;;;1.63;0.93;;;;;;;;;;5113878;28;20023;-73
2022/02/08 01:30:27;;;;;;;3.15;1.08;;;;;;;;;;5113722;28;20098;-73
2022/02/08 01:33:34;;;;;;;3.45;1.15;;;;;;;;;;5113738;28;20027;-74
2022/02/08 01:38:29;;;;;;;2.30;1.17;;;;;;;;;;5114144;28;20058;-73
2022/02/08 01:46:35;;;;;;;2.70;1.35;;;;;;;;;;5092975;28;20178;-73
2022/02/08 01:51:58;;;;;;;2.80;1.33;;;;;;;;;;5074557;28;20486;-73
2022/02/08 01:54:24;;;;;;;2.40;1.00;;;;;;;;;;5113941;27;20029;-73
2022/02/08 01:56:51;;;;;;;2.72;0.95;;;;;;;;;;5132409;27;20102;-73
2022/02/08 01:59:17;;;;;;;2.22;1.15;;;;;;;;;;5133916;27;20023;-73
2022/02/08 02:01:43;;;;;;;2.97;1.13;;;;;;;;;;5132091;27;20041;-73
2022/02/08 02:04:09;;;;;;;1.60;0.90;;;;;;;;;;5133451;27;20043;-73
2022/02/08 02:06:36;;;;;;;2.35;1.10;;;;;;;;;;5133719;27;20051;-73
2022/02/08 02:09:04;;;;;;;2.47;0.95;;;;;;;;;;5133721;27;20020;-73
2022/02/08 02:11:30;;;;;;;2.83;1.08;;;;;;;;;;5132962;27;20110;-73
2022/02/08 02:13:57;;;;;;;2.38;1.13;;;;;;;;;;5115243;27;20059;-73
2022/02/08 02:16:38;;;;;;;1.65;0.95;;;;;;;;;;5133478;27;20106;-73
2022/02/08 02:19:04;;;;;;;1.60;1.00;;;;;;;;;;5125706;27;20014;-73
2022/02/08 02:21:31;;;;;;;2.28;1.10;;;;;;;;;;5112323;28;20041;-74
2022/02/08 02:23:57;;;;;;;1.60;0.90;;;;;;;;;;5113325;28;20043;-74
2022/02/08 02:26:23;;;;;;;3.60;1.25;;;;;;;;;;5112690;28;20034;-74
2022/02/08 02:28:49;;;;;;;2.35;1.00;;;;;;;;;;5113014;28;20023;-73
2022/02/08 02:31:17;;;;;;;2.28;1.13;;;;;;;;;;5112601;28;20469;-73
2022/02/08 02:33:44;;;;;;;2.42;1.10;;;;;;;;;;5094290;28;20015;-73
2022/02/08 03:00:43;;;;;;;2.53;1.00;;;;;;;;;;5109027;28;20023;-73
2022/02/08 03:19:33;;;;;;;2.08;1.10;;;;;;;;;;5116498;28;20081;-73
2022/02/08 03:21:59;;;;;;;1.95;0.90;;;;;;;;;;5116036;28;20405;-73
2022/02/08 03:24:25;;;;;;;1.83;1.08;;;;;;;;;;5116478;28;20085;-73
2022/02/08 03:26:51;;;;;;;3.17;1.20;;;;;;;;;;5116112;28;20033;-73
2022/02/08 03:29:17;;;;;;;3.63;1.50;;;;;;;;;;5116022;28;20020;-73
2022/02/08 03:31:43;;;;;;;2.03;1.08;;;;;;;;;;5115549;28;20024;-73
2022/02/08 03:34:10;;;;;;;3.05;0.82;;;;;;;;;;5116143;28;20019;-73
2022/02/08 03:36:36;;;;;;;2.60;0.90;;;;;;;;;;5115978;28;20073;-74
2022/02/08 03:39:19;;;;;;;2.40;1.00;;;;;;;;;;5116153;28;20019;-74
2022/02/08 03:41:53;;;;;;;2.63;1.13;;;;;;;;;;5115695;28;20058;-73
2022/02/08 03:44:28;;;;;;;3.20;1.20;;;;;;;;;;5115990;28;20015;-73
2022/02/08 03:46:55;;;;;;;2.38;1.20;;;;;;;;;;5115768;28;20478;-74
2022/02/08 03:49:21;;;;;;;2.55;1.30;;;;;;;;;;5116066;28;20023;-73
2022/02/08 03:51:50;;;;;;;1.40;1.05;;;;;;;;;;5115104;28;20031;-73
2022/02/08 03:54:17;;;;;;;2.15;1.10;;;;;;;;;;5115466;28;20023;-73
2022/02/08 03:56:43;;;;;;;2.33;1.10;;;;;;;;;;5115432;28;20028;-73
2022/02/08 03:59:11;;;;;;;1.90;1.10;;;;;;;;;;5115653;28;20031;-73
2022/02/08 04:07:15;;;;;;;2.88;1.10;;;;;;;;;;5115277;28;20034;-73
2022/02/08 04:09:42;;;;;;;2.10;1.08;;;;;;;;;;5095018;28;20016;-73
2022/02/08 04:12:16;;;;;;;3.38;1.13;;;;;;;;;;5094502;28;20039;-73
2022/02/08 04:15:04;;;;;;;2.72;0.98;;;;;;;;;;5094738;28;20023;-73
2022/02/08 04:42:04;;;;;;;3.13;1.23;;;;;;;;;;5101575;28;20027;-73
2022/02/08 04:44:58;;;;;;;2.45;1.27;;;;;;;;;;5114416;28;20030;-73
2022/02/08 04:47:29;;;;;;;1.58;0.88;;;;;;;;;;5113588;28;20508;-73
2022/02/08 04:49:56;;;;;;;1.98;1.00;;;;;;;;;;5114740;28;20085;-73
2022/02/08 04:52:24;;;;;;;3.17;1.00;;;;;;;;;;5114056;28;20383;-73
2022/02/08 04:55:00;;;;;;;2.60;1.27;;;;;;;;;;5122607;27;20027;-74
2022/02/08 04:57:49;;;;;;;1.88;1.00;;;;;;;;;;5134801;27;20489;-74
2022/02/08 05:46:02;;;;;;;3.05;1.33;;;;;;;;;;5113736;28;20031;-73
2022/02/08 05:48:29;;;;;;;1.77;0.90;;;;;;;;;;5113516;28;20032;-73
2022/02/08 05:51:08;;;;;;;2.00;1.10;;;;;;;;;;5113413;28;20019;-73
2022/02/08 05:56:06;;;;;;;1.80;0.95;;;;;;;;;;5091332;28;20027;-73
2022/02/08 05:58:32;;;;;;;2.65;1.33;;;;;;;;;;5093070;28;20039;-73
2022/02/08 06:00:58;;;;;;;2.85;1.50;;;;;;;;;;5091813;28;20028;-73
2022/02/08 06:03:24;;;;;;;2.20;1.15;;;;;;;;;;5092002;28;20121;-73
2022/02/08 06:05:51;;;;;;;2.78;0.90;;;;;;;;;;5092796;28;20070;-73
2022/02/08 06:08:17;;;;;;;2.17;1.25;;;;;;;;;;5106153;28;20028;-73
2022/02/08 06:10:57;;;;;;;3.80;1.08;;;;;;;;;;5113069;28;20109;-73
2022/02/08 06:13:23;;;;;;;2.53;1.00;;;;;;;;;;5094746;28;20027;-73
2022/02/08 06:15:51;;;;;;;3.85;1.20;;;;;;;;;;5113022;28;20019;-73
2022/02/08 06:18:17;;;;;;;2.72;1.60;;;;;;;;;;5113069;28;20024;-73
2022/02/08 06:23:46;;;;;;;1.60;1.00;;;;;;;;;;5113011;28;20022;-73
2022/02/08 06:26:14;;;;;;;3.65;1.52;;;;;;;;;;5112867;28;20034;-73
2022/02/08 06:28:40;;;;;;;3.63;1.25;;;;;;;;;;5112640;28;20034;-73
2022/02/08 06:31:06;;;;;;;3.65;1.40;;;;;;;;;;5113033;28;20077;-73
2022/02/08 06:33:32;;;;;;;3.25;1.48;;;;;;;;;;5112206;28;20022;-73
2022/02/08 06:35:58;;;;;;;2.38;1.15;;;;;;;;;;5112683;28;20020;-73
2022/02/08 06:38:24;;;;;;;2.38;1.48;;;;;;;;;;5111988;28;20027;-73
2022/02/08 06:40:53;;;;;;;2.60;1.50;;;;;;;;;;5112584;28;20509;-73
2022/02/08 06:43:20;;;;;;;3.63;1.42;;;;;;;;;;5094254;28;20069;-73
2022/02/08 06:45:46;;;;;;;4.20;1.80;;;;;;;;;;5112575;28;20051;-73
2022/02/08 06:48:12;;;;;;;4.45;1.58;;;;;;;;;;5112437;28;20024;-73
2022/02/08 06:50:39;;;;;;;4.85;1.77;;;;;;;;;;5094472;28;20076;-73
2022/02/08 06:53:05;;;;;;;3.05;1.60;;;;;;;;;;5112756;28;20023;-73
2022/02/08 06:55:32;;;;;;;3.25;1.50;;;;;;;;;;5126609;28;20478;-73
2022/02/08 06:58:02;;;;;;;3.55;1.50;;;;;;;;;;5132034;28;20031;-73
2022/02/08 07:00:34;;;;;;;3.50;1.65;;;;;;;;;;5131587;28;20023;-74
2022/02/08 07:03:03;;;;;;;2.72;1.50;;;;;;;;;;5132467;28;20039;-73
2022/02/08 07:05:29;;;;;;;4.93;1.40;;;;;;;;;;5133325;28;20031;-73
2022/02/08 07:07:55;;;;;;;2.70;1.40;;;;;;;;;;5122198;28;20035;-73
2022/02/08 07:10:21;;;;;;;4.00;1.70;;;;;;;;;;5112626;28;20016;-73
2022/02/08 07:12:47;;;;;;;3.30;1.50;;;;;;;;;;5112019;28;20105;-73
2022/02/08 07:15:14;;;;;;;2.80;1.70;;;;;;;;;;5112572;28;20023;-73
2022/02/08 07:17:41;;;;;;;3.90;1.50;;;;;;;;;;5112027;28;20027;-73
2022/02/08 07:20:08;;;;;;;3.05;1.60;;;;;;;;;;5112324;28;20036;-73
2022/02/08 07:22:34;;;;;;;3.15;1.88;;;;;;;;;;5112265;28;20072;-73
2022/02/08 07:25:02;;;;;;;5.70;1.83;;;;;;;;;;5112300;28;20093;-73
2022/02/08 07:27:28;;;;;;;2.33;1.35;;;;;;;;;;5112121;28;20031;-73
2022/02/08 07:29:55;;;;;;;4.40;1.92;;;;;;;;;;5112556;28;20111;-73
2022/02/08 07:32:30;;;;;;;2.58;1.42;;;;;;;;;;5111290;28;20069;-73
2022/02/08 07:35:13;;;;;;;5.38;2.13;;;;;;;;;;5095863;28;20487;-73
2022/02/08 07:40:27;;;;;;;4.68;1.90;;;;;;;;;;5099061;28;20160;-73
2022/02/08 07:42:53;;;;;;;3.78;1.85;;;;;;;;;;5107262;28;20030;-73
2022/02/08 07:45:19;;;;;;;2.95;1.80;;;;;;;;;;5107255;28;20039;-73
2022/02/08 07:47:45;;;;;;;4.30;2.35;;;;;;;;;;5111887;28;20043;-73
2022/02/08 07:50:13;;;;;;;3.30;1.70;;;;;;;;;;5115767;28;20024;-73
2022/02/08 07:52:39;;;;;;;3.90;2.28;;;;;;;;;;5109474;28;20043;-73
2022/02/08 07:55:06;;;;;;;4.72;2.20;;;;;;;;;;5098912;27;20498;-73
2022/02/08 07:57:32;;;;;;;3.55;2.05;;;;;;;;;;5096416;27;20029;-73
2022/02/08 07:59:58;;;;;;;4.35;2.50;;;;;;;;;;5091578;28;20093;-73
2022/02/08 08:02:24;;;;;;;7.15;3.00;;;;;;;;;;5088224;28;20032;-73
2022/02/08 08:04:50;;;;;;;4.60;2.25;;;;;;;;;;5088196;28;20039;-74
2022/02/08 08:07:16;;;;;;;4.95;2.20;;;;;;;;;;5105861;28;20031;-72
2022/02/08 08:09:43;;;;;;;6.22;2.85;;;;;;;;;;5117534;27;20023;-71
2022/02/08 08:12:11;;;;;;;5.95;2.33;;;;;;;;;;5078206;28;20062;-70
2022/02/08 08:14:37;;;;;;;5.03;2.33;;;;;;;;;;5106066;27;20479;-71
2022/02/08 08:19:50;;;;;;;4.43;2.50;;;;;;;;;;5119648;27;20054;-74
2022/02/08 08:22:17;;;;;;;3.17;2.40;;;;;;;;;;5112717;27;20267;-74
2022/02/08 08:24:43;;;;;;;4.50;2.25;;;;;;;;;;5106507;28;20035;-75
2022/02/08 08:27:09;;;;;;;4.43;2.25;;;;;;;;;;5105162;28;20039;-74
2022/02/08 08:29:35;;;;;;;4.28;2.60;;;;;;;;;;5118642;27;20087;-74
2022/02/08 08:32:04;;;;;;;5.35;2.75;;;;;;;;;;5112577;27;20024;-73
2022/02/08 08:34:30;;;;;;;4.22;2.33;;;;;;;;;;5098276;27;20035;-72
2022/02/08 08:36:56;;;;;;;3.17;2.20;;;;;;;;;;5077138;27;20031;-73
2022/02/08 08:39:27;;;;;;;4.63;2.30;;;;;;;;;;5127514;27;20031;-73
2022/02/08 08:49:59;;;;;;;5.25;2.65;;;;;;;;;;5113125;27;20436;-74
2022/02/08 08:52:32;;;;;;;4.75;2.70;;;;;;;;;;5109667;27;20024;-73
2022/02/08 08:54:58;;;;;;;5.60;2.70;;;;;;;;;;5105163;28;20028;-74
2022/02/08 08:57:29;;;;;;;3.25;2.47;;;;;;;;;;5104154;28;20076;-70
2022/02/08 08:59:55;;;;;;;7.72;2.90;;;;;;;;;;5096287;28;20035;-72
2022/02/08 09:02:21;;;;;;;6.82;3.05;;;;;;;;;;5083848;27;20084;-73
2022/02/08 09:04:50;;;;;;;6.10;2.65;;;;;;;;;;5102936;27;20068;-72
2022/02/08 09:07:16;;;;;;;5.93;2.83;;;;;;;;;;5106218;27;20024;-74
2022/02/08 09:09:46;;;;;;;5.90;2.72;;;;;;;;;;5123273;27;20552;-71
2022/02/08 09:17:51;;;;;;;6.10;2.90;;;;;;;;;;5120473;27;20080;-71
2022/02/08 09:22:58;;;;;;;4.40;2.70;;;;;;;;;;5107871;27;20027;-71
2022/02/08 09:30:30;;;;;;;4.57;2.78;;;;;;;;;;5112962;27;20104;-71
2022/02/08 09:32:56;;;;;;;4.18;2.22;;;;;;;;;;5111760;27;20011;-70
2022/02/08 09:35:22;;;;;;;10.98;3.45;;;;;;;;;;5106532;27;20046;-70
2022/02/08 09:37:49;;;;;;;6.38;2.65;;;;;;;;;;5111962;27;20100;-70
2022/02/08 09:40:19;;;;;;;5.30;2.80;;;;;;;;;;5104704;27;20030;-70
2022/02/08 09:42:45;;;;;;;5.07;2.70;;;;;;;;;;5100683;27;20019;-71
2022/02/08 09:45:16;;;;;;;4.25;2.38;;;;;;;;;;5111025;27;20127;-70
2022/02/08 09:47:50;;;;;;;3.92;2.75;;;;;;;;;;5112974;27;20375;-70
2022/02/08 09:50:20;;;;;;;6.65;2.65;;;;;;;;;;5114892;27;20042;-70
2022/02/08 09:52:50;;;;;;;4.78;2.60;;;;;;;;;;5114077;27;20023;-70
2022/02/08 09:55:17;;;;;;;6.82;2.85;;;;;;;;;;5084936;28;20647;-70
2022/02/08 09:57:43;;;;;;;5.60;2.70;;;;;;;;;;5109648;27;20023;-70
2022/02/08 10:00:10;;;;;;;4.82;2.40;;;;;;;;;;5112753;27;20055;-70
2022/02/08 10:02:36;;;;;;;4.47;2.53;;;;;;;;;;5093027;27;20121;-70
2022/02/08 10:05:03;;;;;;;8.80;2.70;;;;;;;;;;5104797;27;20558;-70
2022/02/08 10:07:33;;;;;;;6.53;2.33;;;;;;;;;;5110858;27;20031;-70
2022/02/08 10:09:59;;;;;;;6.10;2.05;;;;;;;;;;5105015;27;20107;-70
2022/02/08 10:12:31;;;;;;;6.65;2.63;;;;;;;;;;5108917;27;20036;-70
2022/02/08 10:22:40;;;;;;;6.25;2.83;;;;;;;;;;5106695;27;20031;-70
2022/02/08 10:25:19;;;;;;;6.45;2.70;;;;;;;;;;5111655;27;20428;-71
2022/02/08 10:28:01;;;;;;;4.85;2.47;;;;;;;;;;5097419;27;20043;-71
2022/02/08 10:38:22;;;;;;;6.28;2.35;;;;;;;;;;5108605;27;20563;-70
2022/02/08 10:40:50;;;;;;;5.35;2.15;;;;;;;;;;5112051;27;20480;-71
2022/02/08 10:43:16;;;;;;;6.47;2.10;;;;;;;;;;5095314;27;20062;-69
2022/02/08 10:45:43;;;;;;;4.63;2.38;;;;;;;;;;5102336;27;20474;-70
2022/02/08 10:48:11;;;;;;;4.60;2.35;;;;;;;;;;5094705;28;20038;-70
2022/02/08 10:50:44;;;;;;;5.43;1.92;;;;;;;;;;5113390;28;20541;-71
2022/02/08 10:53:12;;;;;;;6.40;2.08;;;;;;;;;;5112275;28;20068;-70
2022/02/08 10:55:48;;;;;;;5.68;2.60;;;;;;;;;;5104802;28;20035;-71
2022/02/08 11:00:50;;;;;;;3.95;2.25;;;;;;;;;;5107795;28;20039;-69
2022/02/08 11:03:23;;;;;;;6.63;2.08;;;;;;;;;;5108471;27;20510;-69
2022/02/08 11:06:01;;;;;;;4.85;1.88;;;;;;;;;;5113151;28;20478;-70
2022/02/08 11:16:10;;;;;;;7.40;2.00;;;;;;;;;;5095172;28;20082;-70
2022/02/08 11:18:42;;;;;;;4.32;2.30;;;;;;;;;;5096378;28;20510;-70
2022/02/08 11:22:00;;;;;;;5.55;1.73;;;;;;;;;;5104800;28;20427;-70
2022/02/08 11:26:30;;;;;;;3.97;1.98;;;;;;;;;;5111572;27;20097;-70
2022/02/08 11:28:56;;;;;;;3.03;1.73;;;;;;;;;;5107577;27;20100;-70
2022/02/08 11:43:35;;;;;;;6.43;1.92;;;;;;;;;;5109385;27;20050;-71
2022/02/08 12:04:53;;;;;;;7.47;2.22;;;;;;;;;;5102228;27;20131;-75
2022/02/08 12:07:19;;;;;;;5.25;2.58;;;;;;;;;;5093541;27;20028;-74
2022/02/08 12:32:06;;;;;;;7.68;1.48;;;;;;;;;;5102260;27;20398;-74
2022/02/08 12:59:26;;;;;;;3.55;1.80;;;;;;;;;;5113389;27;20042;-71
2022/02/08 13:04:42;;;;;;;4.88;1.70;;;;;;;;;;5108023;27;20054;-71
2022/02/08 13:24:45;;;;;;;4.05;1.60;;;;;;;;;;5105505;27;21706;-73
2022/02/08 14:09:43;;;;;;;6.43;1.90;;;;;;;;;;5098066;27;20177;-71
2022/02/08 14:15:27;;;;;;;9.32;2.30;;;;;;;;;;5117622;27;20517;-71
2022/02/08 14:23:11;;;;;;;3.38;1.58;;;;;;;;;;5112795;27;20081;-70
2022/02/08 15:05:23;;;;;;;8.18;2.22;;;;;;;;;;5100979;28;20639;-73
2022/02/08 15:08:42;;;;;;;4.78;1.58;;;;;;;;;;5106203;27;20056;-75
2022/02/08 15:11:11;;;;;;;4.28;1.35;;;;;;;;;;5089551;28;20039;-75
2022/02/08 15:13:46;;;;;;;5.25;1.63;;;;;;;;;;5090591;28;20035;-75
2022/02/08 15:16:29;;;;;;;4.25;1.63;;;;;;;;;;5088134;28;20783;-75
2022/02/08 15:18:55;;;;;;;7.85;1.90;;;;;;;;;;5091050;28;20012;-75
2022/02/08 15:21:30;;;;;;;6.40;1.55;;;;;;;;;;5102440;28;20020;-75
2022/02/08 15:23:56;;;;;;;6.95;1.30;;;;;;;;;;5088672;28;20081;-76
2022/02/08 15:26:22;;;;;;;11.98;2.08;;;;;;;;;;5084963;28;20023;-76
2022/02/08 15:28:49;;;;;;;5.82;1.90;;;;;;;;;;5105889;28;20471;-75
2022/02/08 15:31:17;;;;;;;3.17;1.30;;;;;;;;;;5088353;28;20088;-74
2022/02/08 15:33:43;;;;;;;7.43;1.85;;;;;;;;;;5107207;28;20034;-75
2022/02/08 15:36:09;;;;;;;5.22;1.60;;;;;;;;;;5092247;27;20024;-74
2022/02/08 15:38:37;;;;;;;5.40;1.45;;;;;;;;;;5093030;27;20055;-73
2022/02/08 15:41:03;;;;;;;5.85;1.75;;;;;;;;;;5114155;27;20020;-74
2022/02/08 15:43:29;;;;;;;5.18;1.60;;;;;;;;;;5101723;28;20383;-74
2022/02/08 15:46:02;;;;;;;5.05;2.30;;;;;;;;;;5099913;27;20059;-76
2022/02/08 15:48:28;;;;;;;6.60;3.03;;;;;;;;;;5107236;28;20053;-73
2022/02/08 15:58:23;;;;;;;8.15;2.03;;;;;;;;;;5097692;27;20089;-70
2022/02/08 16:08:48;;;;;;;5.65;2.70;;;;;;;;;;5120349;27;20116;-75
2022/02/08 16:14:12;;;;;;;7.18;2.40;;;;;;;;;;5122263;27;20020;-73
2022/02/08 16:19:22;;;;;;;6.70;2.30;;;;;;;;;;5125897;27;20034;-73
2022/02/08 16:32:35;;;;;;;6.53;2.70;;;;;;;;;;5112070;28;20035;-71
2022/02/08 16:52:06;;;;;;;7.47;2.47;;;;;;;;;;5134489;27;20474;-72
2022/02/08 16:54:20;;;;;;;5.75;2.42;;;;;;;;;;5134028;27;20034;-72
2022/02/08 16:59:28;;;;;;;4.97;1.90;;;;;;;;;;5105452;27;20266;-72
2022/02/08 17:01:58;;;;;;;3.65;2.28;;;;;;;;;;5119082;27;20024;-72
2022/02/08 17:04:24;;;;;;;10.25;4.63;;;;;;;;;;5113216;28;20063;-72
2022/02/08 17:06:50;;;;;;;11.98;5.88;;;;;;;;;;5104643;28;20085;-72
2022/02/08 17:09:24;;;;;;;6.28;2.60;;;;;;;;;;5091365;28;20039;-72
2022/02/08 17:12:00;;;;;;;4.28;2.13;;;;;;;;;;5096214;28;20462;-73
2022/02/08 17:17:30;;;;;;;7.35;4.40;;;;;;;;;;5113882;27;20039;-72
2022/02/08 17:49:39;;;;;;;6.05;3.28;;;;;;;;;;5126198;27;20038;-71
2022/02/08 17:52:06;;;;;;;9.73;3.60;;;;;;;;;;5133222;27;20023;-72
2022/02/08 17:54:32;;;;;;;4.85;2.55;;;;;;;;;;5128131;27;20028;-72
2022/02/08 17:56:58;;;;;;;6.03;3.10;;;;;;;;;;5112859;28;20028;-72
2022/02/08 17:59:24;;;;;;;7.53;2.65;;;;;;;;;;5094613;28;20023;-72
2022/02/08 18:01:51;;;;;;;6.25;3.13;;;;;;;;;;5112519;28;20535;-72
2022/02/08 18:04:18;;;;;;;4.22;3.00;;;;;;;;;;5095349;28;20040;-72
2022/02/08 18:06:45;;;;;;;7.05;3.35;;;;;;;;;;5090623;28;20494;-73
2022/02/08 18:09:13;;;;;;;8.07;3.17;;;;;;;;;;5073517;28;20036;-73
2022/02/08 18:11:41;;;;;;;5.72;3.30;;;;;;;;;;5091779;28;20024;-72
2022/02/08 18:14:11;;;;;;;6.53;3.33;;;;;;;;;;5074337;28;20080;-72
2022/02/08 18:16:37;;;;;;;6.60;3.53;;;;;;;;;;5091787;28;20091;-71
2022/02/08 18:19:12;;;;;;;5.88;3.30;;;;;;;;;;5091583;28;20081;-71
2022/02/08 18:21:53;;;;;;;5.32;3.10;;;;;;;;;;5104817;28;20039;-71
2022/02/08 18:56:59;;;;;;;6.57;3.72;;;;;;;;;;5111538;28;20406;-70
2022/02/08 19:03:37;;;;;;;5.72;3.28;;;;;;;;;;5112336;28;20024;-70
2022/02/08 19:16:02;;;;;;;5.28;3.33;;;;;;;;;;5076459;28;20471;-71
2022/02/08 19:23:47;;;;;;;9.35;4.25;;;;;;;;;;5091629;28;20533;-71
2022/02/08 19:26:14;;;;;;;6.22;3.75;;;;;;;;;;5105905;28;20024;-72
2022/02/08 19:28:40;;;;;;;7.05;4.07;;;;;;;;;;5111876;28;20489;-71
2022/02/08 19:31:06;;;;;;;7.82;4.38;;;;;;;;;;5111948;28;20069;-71
2022/02/08 19:33:32;;;;;;;6.28;4.15;;;;;;;;;;5111596;28;20402;-71
2022/02/08 19:35:59;;;;;;;7.60;3.80;;;;;;;;;;5111981;28;20053;-71
2022/02/08 19:38:26;;;;;;;6.25;3.85;;;;;;;;;;5111857;28;20394;-71
2022/02/08 19:40:54;;;;;;;8.35;4.35;;;;;;;;;;5093635;28;20063;-71
2022/02/08 19:43:20;;;;;;;7.10;4.10;;;;;;;;;;5092472;28;20054;-71
2022/02/08 19:45:46;;;;;;;6.00;3.75;;;;;;;;;;5094455;28;20036;-71
2022/02/08 19:48:14;;;;;;;7.18;4.40;;;;;;;;;;5095173;28;20398;-71
2022/02/08 19:50:42;;;;;;;10.18;4.57;;;;;;;;;;5076812;28;20024;-71
2022/02/08 19:53:08;;;;;;;6.35;3.95;;;;;;;;;;5076895;28;20035;-71
2022/02/08 19:58:19;;;;;;;7.97;4.18;;;;;;;;;;5105937;28;20030;-72
2022/02/08 20:00:55;;;;;;;9.63;4.88;;;;;;;;;;5115392;28;20110;-71
2022/02/08 20:03:24;;;;;;;9.25;4.70;;;;;;;;;;5124118;27;20035;-72
2022/02/08 20:05:50;;;;;;;9.77;4.55;;;;;;;;;;5135783;27;20118;-72
2022/02/08 20:08:16;;;;;;;7.50;4.70;;;;;;;;;;5122199;27;20130;-71
2022/02/08 20:10:42;;;;;;;6.10;4.85;;;;;;;;;;5115251;28;20478;-71
2022/02/08 20:13:10;;;;;;;7.57;4.47;;;;;;;;;;5115462;28;20110;-71
2022/02/08 20:15:36;;;;;;;9.23;4.65;;;;;;;;;;5114961;28;20073;-71
2022/02/08 20:18:03;;;;;;;8.55;4.85;;;;;;;;;;5114983;28;20024;-71
2022/02/08 20:20:29;;;;;;;10.48;5.63;;;;;;;;;;5115280;28;20027;-71
2022/02/08 20:23:00;;;;;;;8.90;5.22;;;;;;;;;;5115017;28;20047;-71
2022/02/08 20:25:27;;;;;;;7.55;5.22;;;;;;;;;;5096739;28;20123;-71
2022/02/08 20:28:20;;;;;;;7.68;5.57;;;;;;;;;;5114853;28;20462;-71
2022/02/08 20:30:40;;;;;;;10.40;5.85;;;;;;;;;;5128547;27;20027;-71
2022/02/08 20:33:06;;;;;;;7.45;5.30;;;;;;;;;;5135811;27;20084;-71
2022/02/08 20:35:33;;;;;;;9.38;5.55;;;;;;;;;;5135357;27;20102;-71
2022/02/08 20:37:59;;;;;;;8.50;5.28;;;;;;;;;;5135345;27;20027;-71
2022/02/08 20:40:25;;;;;;;8.55;5.75;;;;;;;;;;5116640;27;20490;-71
2022/02/08 20:42:55;;;;;;;8.48;5.47;;;;;;;;;;5119852;27;20030;-71
2022/02/08 20:45:22;;;;;;;11.68;6.30;;;;;;;;;;5114780;28;20072;-71
2022/02/08 20:47:48;;;;;;;8.80;5.68;;;;;;;;;;5114001;28;20216;-71
2022/02/08 20:50:16;;;;;;;8.73;6.00;;;;;;;;;;5114553;28;20527;-71
2022/02/08 20:52:52;;;;;;;9.95;6.28;;;;;;;;;;5114566;28;20023;-71
2022/02/08 20:55:20;;;;;;;8.18;5.72;;;;;;;;;;5113903;28;20081;-71
2022/02/08 20:58:25;;;;;;;11.27;5.70;;;;;;;;;;5113657;28;20039;-71
2022/02/08 21:00:38;;;;;;;9.68;5.88;;;;;;;;;;5110960;28;20149;-71
2022/02/08 21:03:24;;;;;;;8.75;6.60;;;;;;;;;;5130211;27;20173;-71
2022/02/08 21:06:04;;;;;;;9.50;5.93;;;;;;;;;;5134679;27;20098;-71
2022/02/08 21:08:31;;;;;;;9.13;5.85;;;;;;;;;;5119163;27;20135;-71
2022/02/08 21:10:59;;;;;;;7.97;5.43;;;;;;;;;;5114097;28;20027;-71
2022/02/08 21:13:42;;;;;;;8.05;5.57;;;;;;;;;;5113864;28;20023;-71
2022/02/08 21:16:12;;;;;;;9.38;6.07;;;;;;;;;;5095450;28;20068;-71
2022/02/08 21:18:38;;;;;;;8.77;5.57;;;;;;;;;;5114003;28;20035;-71
2022/02/08 21:21:06;;;;;;;10.45;6.07;;;;;;;;;;5113732;28;20027;-71
2022/02/08 21:23:32;;;;;;;9.07;5.55;;;;;;;;;;5113701;28;20501;-71
2022/02/08 21:26:01;;;;;;;9.00;5.53;;;;;;;;;;5113735;28;20102;-71
2022/02/08 21:31:35;;;;;;;10.88;6.05;;;;;;;;;;5113623;28;20505;-71
2022/02/08 21:49:56;;;;;;;11.23;6.75;;;;;;;;;;5113094;28;20063;-71
2022/02/08 21:52:44;;;;;;;8.10;5.97;;;;;;;;;;5112542;28;20031;-71
2022/02/08 21:55:13;;;;;;;8.82;5.85;;;;;;;;;;5113322;28;20066;-71
2022/02/08 21:57:49;;;;;;;8.25;5.25;;;;;;;;;;5112993;28;20031;-71
2022/02/08 22:00:18;;;;;;;8.70;5.45;;;;;;;;;;5113140;28;20027;-71
2022/02/08 22:02:44;;;;;;;9.00;6.03;;;;;;;;;;5112941;28;20035;-72
2022/02/08 22:05:10;;;;;;;11.35;6.40;;;;;;;;;;5113465;28;20036;-72
2022/02/08 22:07:36;;;;;;;10.35;6.20;;;;;;;;;;5121194;27;20062;-71
2022/02/08 22:10:23;;;;;;;8.43;5.93;;;;;;;;;;5112885;28;20028;-71
2022/02/08 22:15:58;;;;;;;10.32;5.88;;;;;;;;;;5113046;28;20034;-71
2022/02/08 22:21:12;;;;;;;7.10;5.70;;;;;;;;;;5112755;28;20036;-71
2022/02/08 22:27:12;;;;;;;7.40;5.53;;;;;;;;;;5112950;28;20091;-71
2022/02/08 22:31:38;;;;;;;8.85;5.72;;;;;;;;;;5111915;28;20566;-71
2022/02/08 22:34:13;;;;;;;8.35;5.38;;;;;;;;;;5112670;28;20486;-71
2022/02/08 22:36:44;;;;;;;7.13;5.25;;;;;;;;;;5112755;28;20047;-71
2022/02/08 22:39:18;;;;;;;7.45;4.82;;;;;;;;;;5123783;27;20046;-72
2022/02/08 22:44:22;;;;;;;8.68;5.43;;;;;;;;;;5112398;28;20020;-72
2022/02/08 22:46:54;;;;;;;7.28;5.32;;;;;;;;;;5112632;28;20032;-71
2022/02/08 22:49:21;;;;;;;6.68;5.20;;;;;;;;;;5112163;28;20031;-71
2022/02/08 22:51:47;;;;;;;7.38;5.00;;;;;;;;;;5111980;28;20479;-71
2022/02/08 22:54:13;;;;;;;8.77;5.13;;;;;;;;;;5112349;28;20077;-71
2022/02/08 22:56:39;;;;;;;6.85;4.88;;;;;;;;;;5094139;28;20519;-71
2022/02/08 22:59:08;;;;;;;6.70;4.57;;;;;;;;;;5112333;28;20126;-71
2022/02/08 23:01:34;;;;;;;8.80;5.30;;;;;;;;;;5111562;28;20489;-71
2022/02/08 23:04:00;;;;;;;6.72;4.60;;;;;;;;;;5112090;28;20459;-71
2022/02/08 23:06:26;;;;;;;7.70;4.93;;;;;;;;;;5112284;28;20027;-71
2022/02/08 23:08:52;;;;;;;6.78;4.75;;;;;;;;;;5093745;28;20035;-72
2022/02/08 23:13:52;;;;;;;6.00;4.63;;;;;;;;;;5112080;28;20028;-72
2022/02/08 23:38:05;;;;;;;7.43;4.30;;;;;;;;;;5095792;28;20069;-71
2022/02/08 23:40:31;;;;;;;6.72;4.25;;;;;;;;;;5095206;28;20027;-71
2022/02/08 23:42:58;;;;;;;6.07;4.35;;;;;;;;;;5109992;28;20407;-72
2022/02/08 23:45:24;;;;;;;4.78;3.90;;;;;;;;;;5115835;28;20483;-72
2022/02/08 23:50:25;;;;;;;5.00;4.00;;;;;;;;;;5115518;28;20509;-71
2022/02/08 23:53:00;;;;;;;6.30;3.90;;;;;;;;;;5115533;28;20023;-71
2022/02/08 23:56:12;;;;;;;6.28;3.72;;;;;;;;;;5115664;28;20098;-72
2022/02/08 23:58:16;;;;;;;5.88;3.50;;;;;;;;;;5106948;28;20042;-72
